Fallon Colony, Nevada
Current Conditions -  °F | °C
As of 11:56 PM on Monday 20 Oct 2014 (Local Time) from KNFL Reporting Station
Clear Clear  
Wind Chill: 57°   Ceiling: Unl
Heat Index: 57°   Visibility: 10mi
Dew Point: 36°   Wind: 12mph
Humidity: 45%   Direction: 280°W
Pressure: 29.95"   Gusts: NA
Location:  39.5809°N, 118.333°W
Report Text: KNFL 210656Z AUTO 28010KT 10SM CLR 14/02 A2995 RMK AO2 SLP114 T01390022
Loading
Personal Weather Stations






























Interactive Weather Map
Tropical Storm Tracking
New forecast layout! Learn more

10-Day Weather Forecast

Advertisements
Track Severe Weather on mobile